Alabama Hills, California
Current Conditions -  °F | °C
As of 6:56 AM on Saturday 01 Nov 2014 (Local Time) from KBIH Reporting Station
Few Clouds Few Clouds  
Wind Chill: 42°   Ceiling: Unl
Heat Index: 42°   Visibility: 10mi
Dew Point: 31°   Wind: 3mph
Humidity: 65%   Direction: 200°SSW
Pressure: 29.66"   Gusts: NA
Location:  36.6126°N, 118.162°W
Report Text: KBIH 011356Z AUTO 20003KT 10SM FEW100 06/M01 A2966 RMK AO2 SLP017 T00561006
Loading
Personal Weather Stations






























Interactive Weather Map
Tropical Storm Tracking
New forecast layout! Learn more

10-Day Weather Forecast

Advertisements
Track Severe Weather on mobile